Terminal Aerodrome Forecast
Issued by NWS

Home | Current Version | Previous Version | Graphics & Text | Print | Product List | Glossary On
Versions: 1 2 3 4 5 6 7 8 9 10 11 12 13 14 15 16 17 18 19 20
000
FTUS43 KGRB 042300
TAFCWA
TAF
KCWA 042322Z 0500/0524 29012G19KT P6SM FEW040
     FM050100 30005KT P6SM SKC
     FM051700 24009G14KT P6SM SKC
      AMD LTD TO CLD VIS AND WIND 0503/0511=

USA.gov is the U.S. government's official web portal to all federal, state and local government web resources and services.